sensor_id;sensor_type;location;lat;lon;timestamp;pressure;altitude;pressure_sealevel;temperature;humidity
13612;BME280;6877;51.436;6.774;2023-03-31T00:01:40;100071.25;;;9.21;100.00
13612;BME280;6877;51.436;6.774;2023-03-31T00:04:08;100064.28;;;9.20;100.00
13612;BME280;6877;51.436;6.774;2023-03-31T00:06:36;100062.56;;;9.19;100.00
13612;BME280;6877;51.436;6.774;2023-03-31T00:09:11;100062.56;;;9.19;100.00
13612;BME280;6877;51.436;6.774;2023-03-31T00:11:44;100053.91;;;9.17;100.00
13612;BME280;6877;51.436;6.774;2023-03-31T00:14:11;100045.13;;;9.21;100.00
13612;BME280;6877;51.436;6.774;2023-03-31T00:16:38;100044.16;;;9.23;100.00
13612;BME280;6877;51.436;6.774;2023-03-31T00:19:05;100043.25;;;9.26;100.00
13612;BME280;6877;51.436;6.774;2023-03-31T00:21:35;100044.91;;;9.30;100.00
13612;BME280;6877;51.436;6.774;2023-03-31T00:24:09;100038.81;;;9.29;100.00
13612;BME280;6877;51.436;6.774;2023-03-31T00:26:41;100028.97;;;9.39;100.00
13612;BME280;6877;51.436;6.774;2023-03-31T00:29:13;100028.75;;;9.48;100.00
13612;BME280;6877;51.436;6.774;2023-03-31T00:31:44;100019.97;;;9.51;100.00
13612;BME280;6877;51.436;6.774;2023-03-31T00:34:11;100018.22;;;9.51;100.00
13612;BME280;6877;51.436;6.774;2023-03-31T00:36:37;100013.00;;;9.51;100.00
13612;BME280;6877;51.436;6.774;2023-03-31T00:39:14;100008.75;;;9.49;100.00
13612;BME280;6877;51.436;6.774;2023-03-31T00:41:46;99996.56;;;9.48;100.00
13612;BME280;6877;51.436;6.774;2023-03-31T00:44:18;99993.00;;;9.50;100.00
13612;BME280;6877;51.436;6.774;2023-03-31T00:47:01;99985.03;;;9.55;100.00
13612;BME280;6877;51.436;6.774;2023-03-31T00:49:38;99988.53;;;9.56;100.00
13612;BME280;6877;51.436;6.774;2023-03-31T00:52:16;99990.56;;;9.44;100.00
13612;BME280;6877;51.436;6.774;2023-03-31T00:54:58;99985.03;;;9.22;100.00
13612;BME280;6877;51.436;6.774;2023-03-31T00:57:28;99985.34;;;9.10;100.00
13612;BME280;6877;51.436;6.774;2023-03-31T01:00:02;99989.09;;;8.98;100.00
13612;BME280;6877;51.436;6.774;2023-03-31T01:02:44;99977.00;;;8.96;100.00
13612;BME280;6877;51.436;6.774;2023-03-31T01:07:59;99978.91;;;8.88;100.00
13612;BME280;6877;51.436;6.774;2023-03-31T01:10:36;99972.84;;;8.87;100.00
13612;BME280;6877;51.436;6.774;2023-03-31T01:13:11;99955.50;;;8.86;100.00
13612;BME280;6877;51.436;6.774;2023-03-31T01:15:43;99958.09;;;8.86;100.00
13612;BME280;6877;51.436;6.774;2023-03-31T01:18:15;99949.38;;;8.86;100.00
13612;BME280;6877;51.436;6.774;2023-03-31T01:35:00;99909.31;;;8.90;100.00
13612;BME280;6877;51.436;6.774;2023-03-31T01:40:49;99891.06;;;8.88;100.00
13612;BME280;6877;51.436;6.774;2023-03-31T01:43:35;99887.66;;;8.86;100.00
13612;BME280;6877;51.436;6.774;2023-03-31T01:46:17;99885.06;;;8.85;100.00
13612;BME280;6877;51.436;6.774;2023-03-31T01:49:55;99875.56;;;8.82;100.00
13612;BME280;6877;51.436;6.774;2023-03-31T01:57:28;99862.50;;;8.82;100.00
13612;BME280;6877;51.436;6.774;2023-03-31T02:00:11;99859.88;;;8.84;100.00
13612;BME280;6877;51.436;6.774;2023-03-31T02:05:09;99844.19;;;8.85;100.00
13612;BME280;6877;51.436;6.774;2023-03-31T02:07:45;99844.22;;;8.84;100.00
13612;BME280;6877;51.436;6.774;2023-03-31T02:10:19;99837.25;;;8.84;100.00
13612;BME280;6877;51.436;6.774;2023-03-31T02:12:48;99825.13;;;8.83;100.00
13612;BME280;6877;51.436;6.774;2023-03-31T02:15:20;99823.31;;;8.85;100.00
13612;BME280;6877;51.436;6.774;2023-03-31T02:17:50;99818.94;;;8.86;100.00
13612;BME280;6877;51.436;6.774;2023-03-31T02:20:26;99811.09;;;8.86;100.00
13612;BME280;6877;51.436;6.774;2023-03-31T02:22:59;99809.38;;;8.86;100.00
13612;BME280;6877;51.436;6.774;2023-03-31T02:25:32;99805.00;;;8.87;100.00
13612;BME280;6877;51.436;6.774;2023-03-31T02:28:07;99791.97;;;8.87;100.00
13612;BME280;6877;51.436;6.774;2023-03-31T02:33:13;99784.13;;;8.87;100.00
13612;BME280;6877;51.436;6.774;2023-03-31T02:35:41;99779.72;;;8.89;100.00
13612;BME280;6877;51.436;6.774;2023-03-31T02:38:08;99770.16;;;8.89;100.00
13612;BME280;6877;51.436;6.774;2023-03-31T02:40:41;99762.25;;;8.92;100.00
13612;BME280;6877;51.436;6.774;2023-03-31T02:43:08;99752.59;;;8.94;100.00
13612;BME280;6877;51.436;6.774;2023-03-31T02:45:50;99736.94;;;8.96;100.00
13612;BME280;6877;51.436;6.774;2023-03-31T02:48:25;99731.66;;;8.97;100.00
13612;BME280;6877;51.436;6.774;2023-03-31T02:54:15;99708.91;;;9.02;100.00
13612;BME280;6877;51.436;6.774;2023-03-31T03:03:10;99683.59;;;9.04;100.00
13612;BME280;6877;51.436;6.774;2023-03-31T03:17:24;99636.53;;;9.08;100.00
13612;BME280;6877;51.436;6.774;2023-03-31T03:19:59;99644.50;;;9.03;100.00
13612;BME280;6877;51.436;6.774;2023-03-31T03:22:26;99635.81;;;9.02;100.00
13612;BME280;6877;51.436;6.774;2023-03-31T03:24:53;99632.38;;;9.02;100.00
13612;BME280;6877;51.436;6.774;2023-03-31T03:27:20;99634.97;;;9.02;100.00
13612;BME280;6877;51.436;6.774;2023-03-31T03:29:49;99622.81;;;9.01;100.00
13612;BME280;6877;51.436;6.774;2023-03-31T03:32:16;99621.06;;;9.01;100.00
13612;BME280;6877;51.436;6.774;2023-03-31T03:34:47;99619.34;;;9.00;100.00
13612;BME280;6877;51.436;6.774;2023-03-31T03:37:19;99608.91;;;9.00;100.00
13612;BME280;6877;51.436;6.774;2023-03-31T03:39:45;99594.16;;;8.99;100.00
13612;BME280;6877;51.436;6.774;2023-03-31T03:42:11;99591.56;;;8.99;100.00
13612;BME280;6877;51.436;6.774;2023-03-31T03:44:40;99592.44;;;8.98;100.00
13612;BME280;6877;51.436;6.774;2023-03-31T03:47:07;99593.25;;;9.00;100.00
13612;BME280;6877;51.436;6.774;2023-03-31T03:49:34;99593.25;;;9.00;100.00
13612;BME280;6877;51.436;6.774;2023-03-31T03:52:06;99584.50;;;9.01;100.00
13612;BME280;6877;51.436;6.774;2023-03-31T03:54:32;99563.69;;;9.00;100.00
13612;BME280;6877;51.436;6.774;2023-03-31T03:57:00;99565.47;;;8.99;100.00
13612;BME280;6877;51.436;6.774;2023-03-31T03:59:27;99568.00;;;9.01;100.00
13612;BME280;6877;51.436;6.774;2023-03-31T04:01:58;99561.94;;;9.00;100.00
13612;BME280;6877;51.436;6.774;2023-03-31T04:04:30;99534.16;;;8.99;100.00
13612;BME280;6877;51.436;6.774;2023-03-31T04:07:01;99517.75;;;8.96;100.00
13612;BME280;6877;51.436;6.774;2023-03-31T04:09:33;99515.16;;;8.94;100.00
13612;BME280;6877;51.436;6.774;2023-03-31T04:12:06;99516.97;;;8.92;100.00
13612;BME280;6877;51.436;6.774;2023-03-31T04:14:37;99529.22;;;8.90;100.00
13612;BME280;6877;51.436;6.774;2023-03-31T04:17:09;99537.03;;;8.90;100.00
13612;BME280;6877;51.436;6.774;2023-03-31T04:19:35;99544.78;;;8.93;100.00
13612;BME280;6877;51.436;6.774;2023-03-31T04:22:08;99526.50;;;8.93;100.00
13612;BME280;6877;51.436;6.774;2023-03-31T04:24:36;99520.38;;;8.94;100.00
13612;BME280;6877;51.436;6.774;2023-03-31T04:27:06;99509.09;;;8.94;100.00
13612;BME280;6877;51.436;6.774;2023-03-31T04:29:33;99505.63;;;8.93;100.00
13612;BME280;6877;51.436;6.774;2023-03-31T04:32:07;99485.69;;;8.92;100.00
13612;BME280;6877;51.436;6.774;2023-03-31T04:34:38;99471.75;;;8.92;100.00
13612;BME280;6877;51.436;6.774;2023-03-31T04:37:10;99444.78;;;8.93;100.00
13612;BME280;6877;51.436;6.774;2023-03-31T04:39:36;99441.22;;;8.95;100.00
13612;BME280;6877;51.436;6.774;2023-03-31T04:42:02;99459.59;;;8.92;100.00
13612;BME280;6877;51.436;6.774;2023-03-31T04:44:29;99457.84;;;8.91;100.00
13612;BME280;6877;51.436;6.774;2023-03-31T04:47:00;99435.28;;;8.90;100.00
13612;BME280;6877;51.436;6.774;2023-03-31T04:49:33;99431.03;;;8.88;100.00
13612;BME280;6877;51.436;6.774;2023-03-31T04:52:06;99417.94;;;8.89;100.00
13612;BME280;6877;51.436;6.774;2023-03-31T04:54:37;99415.47;;;8.85;100.00
13612;BME280;6877;51.436;6.774;2023-03-31T04:57:03;99410.16;;;8.88;100.00
13612;BME280;6877;51.436;6.774;2023-03-31T04:59:30;99400.66;;;8.85;100.00
13612;BME280;6877;51.436;6.774;2023-03-31T05:01:57;99397.28;;;8.83;100.00
13612;BME280;6877;51.436;6.774;2023-03-31T05:04:23;99388.72;;;8.78;100.00
13612;BME280;6877;51.436;6.774;2023-03-31T05:06:54;99382.75;;;8.74;100.00
13612;BME280;6877;51.436;6.774;2023-03-31T05:09:21;99378.59;;;8.69;100.00
13612;BME280;6877;51.436;6.774;2023-03-31T05:11:53;99373.44;;;8.67;100.00
13612;BME280;6877;51.436;6.774;2023-03-31T05:14:19;99369.22;;;8.63;100.00
13612;BME280;6877;51.436;6.774;2023-03-31T05:16:46;99357.25;;;8.57;100.00
13612;BME280;6877;51.436;6.774;2023-03-31T05:19:17;99361.66;;;8.55;100.00
13612;BME280;6877;51.436;6.774;2023-03-31T05:21:43;99349.63;;;8.51;100.00
13612;BME280;6877;51.436;6.774;2023-03-31T05:24:15;99347.91;;;8.50;100.00
13612;BME280;6877;51.436;6.774;2023-03-31T05:26:46;99340.03;;;8.52;100.00
13612;BME280;6877;51.436;6.774;2023-03-31T05:29:23;99344.41;;;8.51;100.00
13612;BME280;6877;51.436;6.774;2023-03-31T05:31:49;99342.59;;;8.53;100.00
13612;BME280;6877;51.436;6.774;2023-03-31T05:34:21;99339.00;;;8.57;100.00
13612;BME280;6877;51.436;6.774;2023-03-31T05:36:52;99327.56;;;8.62;100.00
13612;BME280;6877;51.436;6.774;2023-03-31T05:39:24;99327.44;;;8.65;100.00
13612;BME280;6877;51.436;6.774;2023-03-31T05:41:55;99318.69;;;8.67;100.00
13612;BME280;6877;51.436;6.774;2023-03-31T05:44:26;99325.63;;;8.67;100.00
13612;BME280;6877;51.436;6.774;2023-03-31T05:46:58;99316.06;;;8.67;100.00
13612;BME280;6877;51.436;6.774;2023-03-31T05:49:29;99319.53;;;8.68;100.00
13612;BME280;6877;51.436;6.774;2023-03-31T05:51:55;99311.63;;;8.69;100.00
13612;BME280;6877;51.436;6.774;2023-03-31T05:54:27;99307.22;;;8.71;100.00
13612;BME280;6877;51.436;6.774;2023-03-31T05:56:58;99297.59;;;8.73;100.00
13612;BME280;6877;51.436;6.774;2023-03-31T05:59:25;99302.72;;;8.76;100.00
13612;BME280;6877;51.436;6.774;2023-03-31T06:01:53;99305.78;;;8.88;100.00
13612;BME280;6877;51.436;6.774;2023-03-31T06:04:24;99294.41;;;8.90;100.00
13612;BME280;6877;51.436;6.774;2023-03-31T06:06:51;99291.69;;;8.93;100.00
13612;BME280;6877;51.436;6.774;2023-03-31T06:09:25;99285.56;;;8.94;100.00
13612;BME280;6877;51.436;6.774;2023-03-31T06:11:56;99281.25;;;8.93;100.00
13612;BME280;6877;51.436;6.774;2023-03-31T06:14:28;99279.50;;;8.94;100.00
13612;BME280;6877;51.436;6.774;2023-03-31T06:16:54;99285.56;;;8.94;100.00
13612;BME280;6877;51.436;6.774;2023-03-31T06:19:26;99287.28;;;8.95;100.00
13612;BME280;6877;51.436;6.774;2023-03-31T06:21:52;99270.72;;;8.96;100.00
13612;BME280;6877;51.436;6.774;2023-03-31T06:24:18;99272.41;;;8.97;100.00
13612;BME280;6877;51.436;6.774;2023-03-31T06:26:50;99267.19;;;8.97;100.00
13612;BME280;6877;51.436;6.774;2023-03-31T06:29:21;99271.50;;;8.98;100.00
13612;BME280;6877;51.436;6.774;2023-03-31T06:31:53;99272.50;;;8.94;100.00
13612;BME280;6877;51.436;6.774;2023-03-31T06:34:24;99270.00;;;8.91;100.00
13612;BME280;6877;51.436;6.774;2023-03-31T06:36:56;99276.25;;;8.87;100.00
13612;BME280;6877;51.436;6.774;2023-03-31T06:39:27;99272.84;;;8.85;100.00
13612;BME280;6877;51.436;6.774;2023-03-31T06:41:53;99269.38;;;8.85;100.00
13612;BME280;6877;51.436;6.774;2023-03-31T06:44:25;99267.69;;;8.84;100.00
13612;BME280;6877;51.436;6.774;2023-03-31T06:46:51;99272.84;;;8.85;100.00
13612;BME280;6877;51.436;6.774;2023-03-31T06:49:18;99270.13;;;8.88;100.00
13612;BME280;6877;51.436;6.774;2023-03-31T06:51:49;99271.78;;;8.91;100.00
13612;BME280;6877;51.436;6.774;2023-03-31T06:54:15;99261.22;;;8.94;100.00
13612;BME280;6877;51.436;6.774;2023-03-31T06:56:42;99260.31;;;8.95;100.00
13612;BME280;6877;51.436;6.774;2023-03-31T06:59:08;99265.59;;;8.93;100.00
13612;BME280;6877;51.436;6.774;2023-03-31T07:01:35;99259.56;;;8.91;100.00
13612;BME280;6877;51.436;6.774;2023-03-31T07:04:09;99260.53;;;8.89;100.00
13612;BME280;6877;51.436;6.774;2023-03-31T07:06:40;99256.28;;;8.86;100.00
13612;BME280;6877;51.436;6.774;2023-03-31T07:09:07;99260.63;;;8.86;100.00
13612;BME280;6877;51.436;6.774;2023-03-31T07:11:38;99254.47;;;8.88;100.00
13612;BME280;6877;51.436;6.774;2023-03-31T07:14:05;99255.28;;;8.90;100.00
13612;BME280;6877;51.436;6.774;2023-03-31T07:16:31;99264.69;;;8.94;100.00
13612;BME280;6877;51.436;6.774;2023-03-31T07:18:57;99254.13;;;8.97;100.00
13612;BME280;6877;51.436;6.774;2023-03-31T07:21:29;99252.38;;;8.98;100.00
13612;BME280;6877;51.436;6.774;2023-03-31T07:23:56;99244.66;;;8.95;100.00
13612;BME280;6877;51.436;6.774;2023-03-31T07:26:22;99243.81;;;8.94;100.00
13612;BME280;6877;51.436;6.774;2023-03-31T07:28:49;99244.66;;;8.95;100.00
13612;BME280;6877;51.436;6.774;2023-03-31T07:31:17;99242.94;;;8.95;100.00
13612;BME280;6877;51.436;6.774;2023-03-31T07:33:48;99252.34;;;8.99;100.00
13612;BME280;6877;51.436;6.774;2023-03-31T07:36:20;99245.41;;;8.98;100.00
13612;BME280;6877;51.436;6.774;2023-03-31T07:38:51;99235.94;;;8.96;100.00
13612;BME280;6877;51.436;6.774;2023-03-31T07:41:23;99242.84;;;8.97;100.00
13612;BME280;6877;51.436;6.774;2023-03-31T07:43:50;99245.41;;;8.98;100.00
13612;BME280;6877;51.436;6.774;2023-03-31T07:46:26;99244.66;;;8.95;100.00
13612;BME280;6877;51.436;6.774;2023-03-31T07:48:55;99247.22;;;8.96;100.00
13612;BME280;6877;51.436;6.774;2023-03-31T07:51:27;99249.63;;;9.02;100.00
13612;BME280;6877;51.436;6.774;2023-03-31T07:53:58;99245.19;;;9.04;100.00
13612;BME280;6877;51.436;6.774;2023-03-31T07:56:29;99244.41;;;9.02;100.00
13612;BME280;6877;51.436;6.774;2023-03-31T07:58:56;99238.38;;;9.00;100.00
13612;BME280;6877;51.436;6.774;2023-03-31T08:01:27;99231.56;;;8.96;100.00
13612;BME280;6877;51.436;6.774;2023-03-31T08:03:59;99225.63;;;8.93;100.00
13612;BME280;6877;51.436;6.774;2023-03-31T08:06:31;99216.25;;;8.87;100.00
13612;BME280;6877;51.436;6.774;2023-03-31T08:09:06;99216.25;;;8.87;100.00
13612;BME280;6877;51.436;6.774;2023-03-31T08:11:33;99215.28;;;8.90;100.00
13612;BME280;6877;51.436;6.774;2023-03-31T08:14:04;99210.91;;;8.90;100.00
13612;BME280;6877;51.436;6.774;2023-03-31T08:16:31;99204.78;;;8.91;100.00
13612;BME280;6877;51.436;6.774;2023-03-31T08:19:03;99205.59;;;8.93;100.00
13612;BME280;6877;51.436;6.774;2023-03-31T08:21:36;99196.75;;;8.97;100.00
13612;BME280;6877;51.436;6.774;2023-03-31T08:24:08;99205.16;;;9.05;100.00
13612;BME280;6877;51.436;6.774;2023-03-31T08:26:34;99208.31;;;9.14;100.00
13612;BME280;6877;51.436;6.774;2023-03-31T08:29:00;99200.94;;;9.25;100.00
13612;BME280;6877;51.436;6.774;2023-03-31T08:31:29;99194.91;;;9.46;100.00
13612;BME280;6877;51.436;6.774;2023-03-31T08:33:55;99191.38;;;9.69;100.00
13612;BME280;6877;51.436;6.774;2023-03-31T08:36:27;99191.59;;;9.85;100.00
13612;BME280;6877;51.436;6.774;2023-03-31T08:38:59;99190.16;;;10.00;100.00
13612;BME280;6877;51.436;6.774;2023-03-31T08:46:50;99180.13;;;10.32;100.00
13612;BME280;6877;51.436;6.774;2023-03-31T08:49:19;99177.19;;;10.39;100.00
13612;BME280;6877;51.436;6.774;2023-03-31T08:51:51;99177.25;;;10.38;100.00
13612;BME280;6877;51.436;6.774;2023-03-31T08:56:57;99179.28;;;10.52;100.00
13612;BME280;6877;51.436;6.774;2023-03-31T08:59:32;99169.91;;;10.66;100.00
13612;BME280;6877;51.436;6.774;2023-03-31T09:02:38;99172.41;;;10.70;100.00
13612;BME280;6877;51.436;6.774;2023-03-31T09:18:54;99168.09;;;10.48;100.00
13612;BME280;6877;51.436;6.774;2023-03-31T09:21:35;99153.47;;;10.44;100.00
13612;BME280;6877;51.436;6.774;2023-03-31T09:24:11;99150.91;;;10.42;100.00
13612;BME280;6877;51.436;6.774;2023-03-31T09:26:52;99147.38;;;10.43;100.00
13612;BME280;6877;51.436;6.774;2023-03-31T09:29:44;99147.25;;;10.47;100.00
13612;BME280;6877;51.436;6.774;2023-03-31T09:32:18;99137.38;;;10.53;100.00
13612;BME280;6877;51.436;6.774;2023-03-31T09:34:52;99131.00;;;10.59;100.00
13612;BME280;6877;51.436;6.774;2023-03-31T09:37:30;99137.59;;;10.67;100.00
13612;BME280;6877;51.436;6.774;2023-03-31T09:40:03;99128.41;;;10.78;100.00
13612;BME280;6877;51.436;6.774;2023-03-31T09:42:36;99117.47;;;10.88;100.00
13612;BME280;6877;51.436;6.774;2023-03-31T09:45:18;99116.75;;;11.04;100.00
13612;BME280;6877;51.436;6.774;2023-03-31T09:47:53;99121.28;;;11.19;100.00
13612;BME280;6877;51.436;6.774;2023-03-31T09:50:21;99110.47;;;11.44;100.00
13612;BME280;6877;51.436;6.774;2023-03-31T09:52:55;99111.19;;;12.01;100.00
13612;BME280;6877;51.436;6.774;2023-03-31T09:55:23;99103.44;;;12.66;100.00
13612;BME280;6877;51.436;6.774;2023-03-31T09:57:51;99101.31;;;13.38;100.00
13612;BME280;6877;51.436;6.774;2023-03-31T10:00:21;99101.19;;;14.16;100.00
13612;BME280;6877;51.436;6.774;2023-03-31T10:05:25;99106.22;;;14.77;93.29
13612;BME280;6877;51.436;6.774;2023-03-31T10:08:13;99088.03;;;14.16;94.85
13612;BME280;6877;51.436;6.774;2023-03-31T10:13:47;99102.25;;;12.05;100.00
13612;BME280;6877;51.436;6.774;2023-03-31T10:21:48;99108.53;;;10.93;100.00
13612;BME280;6877;51.436;6.774;2023-03-31T10:24:19;99100.78;;;10.91;100.00
13612;BME280;6877;51.436;6.774;2023-03-31T10:26:53;99099.34;;;11.03;100.00
13612;BME280;6877;51.436;6.774;2023-03-31T10:29:30;99091.88;;;11.31;100.00
13612;BME280;6877;51.436;6.774;2023-03-31T10:32:04;99087.47;;;11.68;100.00
13612;BME280;6877;51.436;6.774;2023-03-31T10:34:40;99086.88;;;11.98;100.00
13612;BME280;6877;51.436;6.774;2023-03-31T10:37:13;99076.22;;;12.18;100.00
13612;BME280;6877;51.436;6.774;2023-03-31T10:39:49;99075.78;;;12.43;100.00
13612;BME280;6877;51.436;6.774;2023-03-31T10:42:26;99077.97;;;12.84;100.00
13612;BME280;6877;51.436;6.774;2023-03-31T10:45:58;99072.63;;;13.49;99.69
13612;BME280;6877;51.436;6.774;2023-03-31T10:48:16;99073.22;;;14.29;96.84
13612;BME280;6877;51.436;6.774;2023-03-31T10:50:48;99083.72;;;14.43;95.28
13612;BME280;6877;51.436;6.774;2023-03-31T10:53:19;99079.44;;;13.98;93.32
13612;BME280;6877;51.436;6.774;2023-03-31T10:58:48;99088.78;;;12.29;95.80
13612;BME280;6877;51.436;6.774;2023-03-31T11:12:40;99081.75;;;11.43;100.00
13612;BME280;6877;51.436;6.774;2023-03-31T11:23:42;99084.59;;;11.92;100.00
13612;BME280;6877;51.436;6.774;2023-03-31T11:26:23;99079.47;;;12.23;97.08
13612;BME280;6877;51.436;6.774;2023-03-31T11:32:24;99082.47;;;12.98;95.00
13612;BME280;6877;51.436;6.774;2023-03-31T11:38:00;99080.84;;;13.11;88.45
13612;BME280;6877;51.436;6.774;2023-03-31T11:49:03;99081.63;;;13.13;86.21
13612;BME280;6877;51.436;6.774;2023-03-31T11:51:55;99074.59;;;13.30;87.15
13612;BME280;6877;51.436;6.774;2023-03-31T11:54:38;99069.78;;;13.38;85.78
13612;BME280;6877;51.436;6.774;2023-03-31T11:57:13;99063.22;;;13.45;81.12
13612;BME280;6877;51.436;6.774;2023-03-31T11:59:43;99068.13;;;13.51;83.79
13612;BME280;6877;51.436;6.774;2023-03-31T12:04:51;99062.25;;;13.92;82.65
13612;BME280;6877;51.436;6.774;2023-03-31T12:07:30;99049.09;;;13.92;80.44
13612;BME280;6877;51.436;6.774;2023-03-31T12:10:21;99053.94;;;13.70;80.11
13612;BME280;6877;51.436;6.774;2023-03-31T12:12:58;99051.09;;;13.42;81.13
13612;BME280;6877;51.436;6.774;2023-03-31T12:15:44;99050.88;;;13.15;82.22
13612;BME280;6877;51.436;6.774;2023-03-31T12:18:22;99045.53;;;13.01;83.29
13612;BME280;6877;51.436;6.774;2023-03-31T12:20:55;99051.28;;;12.92;84.65
13612;BME280;6877;51.436;6.774;2023-03-31T12:23:30;99043.19;;;12.81;82.92
13612;BME280;6877;51.436;6.774;2023-03-31T12:26:22;99064.00;;;12.84;83.62
13612;BME280;6877;51.436;6.774;2023-03-31T12:28:58;99059.34;;;12.89;85.14
13612;BME280;6877;51.436;6.774;2023-03-31T12:31:27;99052.84;;;12.96;84.61
13612;BME280;6877;51.436;6.774;2023-03-31T12:34:07;99052.66;;;13.15;84.69
13612;BME280;6877;51.436;6.774;2023-03-31T12:37:12;99041.66;;;13.40;83.60
13612;BME280;6877;51.436;6.774;2023-03-31T12:40:39;99034.19;;;13.62;85.56
13612;BME280;6877;51.436;6.774;2023-03-31T12:43:06;99037.00;;;14.04;86.71
13612;BME280;6877;51.436;6.774;2023-03-31T12:48:33;99025.63;;;14.46;82.56
13612;BME280;6877;51.436;6.774;2023-03-31T12:56:27;99002.88;;;14.88;77.76
13612;BME280;6877;51.436;6.774;2023-03-31T12:59:17;98996.66;;;14.89;76.82
13612;BME280;6877;51.436;6.774;2023-03-31T13:04:36;98990.91;;;15.10;77.29
13612;BME280;6877;51.436;6.774;2023-03-31T13:07:46;98977.03;;;15.07;73.11
13612;BME280;6877;51.436;6.774;2023-03-31T13:10:23;98982.47;;;14.77;73.15
13612;BME280;6877;51.436;6.774;2023-03-31T13:13:00;98978.75;;;14.53;72.38
13612;BME280;6877;51.436;6.774;2023-03-31T13:15:27;98984.19;;;14.21;72.39
13612;BME280;6877;51.436;6.774;2023-03-31T13:18:03;98976.22;;;14.08;72.12
13612;BME280;6877;51.436;6.774;2023-03-31T13:20:37;98977.66;;;14.28;73.10
13612;BME280;6877;51.436;6.774;2023-03-31T13:25:43;98965.50;;;14.54;70.54
13612;BME280;6877;51.436;6.774;2023-03-31T13:28:40;98984.84;;;14.68;69.86
13612;BME280;6877;51.436;6.774;2023-03-31T13:31:13;98970.38;;;14.60;69.97
13612;BME280;6877;51.436;6.774;2023-03-31T13:33:56;98973.56;;;14.66;70.21
13612;BME280;6877;51.436;6.774;2023-03-31T13:53:07;98966.59;;;14.65;66.88
13612;BME280;6877;51.436;6.774;2023-03-31T14:02:13;98948.44;;;15.01;63.74
13612;BME280;6877;51.436;6.774;2023-03-31T14:05:03;98943.06;;;15.03;64.79
13612;BME280;6877;51.436;6.774;2023-03-31T14:15:55;98934.50;;;15.39;64.57
13612;BME280;6877;51.436;6.774;2023-03-31T14:18:31;98923.44;;;15.47;62.88
13612;BME280;6877;51.436;6.774;2023-03-31T14:21:29;98923.34;;;15.48;63.97
13612;BME280;6877;51.436;6.774;2023-03-31T14:24:28;98922.03;;;15.28;61.29
13612;BME280;6877;51.436;6.774;2023-03-31T14:29:54;98931.19;;;14.83;63.59
13612;BME280;6877;51.436;6.774;2023-03-31T14:38:01;98925.03;;;13.27;74.48
13612;BME280;6877;51.436;6.774;2023-03-31T14:40:30;98942.75;;;12.77;79.74
13612;BME280;6877;51.436;6.774;2023-03-31T14:42:57;98953.78;;;12.52;81.41
13612;BME280;6877;51.436;6.774;2023-03-31T14:45:25;98948.91;;;12.28;83.65
13612;BME280;6877;51.436;6.774;2023-03-31T14:48:10;98969.19;;;12.09;86.31
13612;BME280;6877;51.436;6.774;2023-03-31T14:50:46;98971.25;;;11.87;90.84
13612;BME280;6877;51.436;6.774;2023-03-31T14:53:23;98963.53;;;11.66;93.32
13612;BME280;6877;51.436;6.774;2023-03-31T14:56:02;98957.91;;;11.56;96.52
13612;BME280;6877;51.436;6.774;2023-03-31T14:58:40;98960.63;;;11.55;98.69
13612;BME280;6877;51.436;6.774;2023-03-31T15:01:18;98961.00;;;11.47;98.99
13612;BME280;6877;51.436;6.774;2023-03-31T15:03:49;98950.78;;;11.43;99.18
13612;BME280;6877;51.436;6.774;2023-03-31T15:06:25;98956.06;;;11.41;99.01
13612;BME280;6877;51.436;6.774;2023-03-31T15:08:55;98955.22;;;11.41;99.85
13612;BME280;6877;51.436;6.774;2023-03-31T15:11:29;98963.09;;;11.41;99.02
13612;BME280;6877;51.436;6.774;2023-03-31T15:14:01;98956.16;;;11.40;99.68
13612;BME280;6877;51.436;6.774;2023-03-31T15:16:39;98963.34;;;11.36;99.67
13612;BME280;6877;51.436;6.774;2023-03-31T15:21:55;98925.22;;;11.30;98.88
13612;BME280;6877;51.436;6.774;2023-03-31T15:24:28;98917.28;;;11.32;99.59
13612;BME280;6877;51.436;6.774;2023-03-31T15:29:42;98926.97;;;11.47;95.56
13612;BME280;6877;51.436;6.774;2023-03-31T15:32:26;98925.13;;;11.49;93.95
13612;BME280;6877;51.436;6.774;2023-03-31T15:34:58;98910.25;;;11.50;92.57
13612;BME280;6877;51.436;6.774;2023-03-31T15:37:38;98919.66;;;11.54;91.38
13612;BME280;6877;51.436;6.774;2023-03-31T15:40:17;98930.34;;;11.67;92.39
13612;BME280;6877;51.436;6.774;2023-03-31T15:42:56;98923.31;;;11.85;91.43
13612;BME280;6877;51.436;6.774;2023-03-31T15:48:02;98917.78;;;12.22;90.38
13612;BME280;6877;51.436;6.774;2023-03-31T15:50:31;98912.19;;;12.28;89.89
13612;BME280;6877;51.436;6.774;2023-03-31T15:53:24;98924.31;;;12.31;88.75
13612;BME280;6877;51.436;6.774;2023-03-31T15:55:54;98929.03;;;12.24;87.87
13612;BME280;6877;51.436;6.774;2023-03-31T15:58:24;98922.13;;;12.23;90.32
13612;BME280;6877;51.436;6.774;2023-03-31T16:01:15;98919.41;;;12.25;87.36
13612;BME280;6877;51.436;6.774;2023-03-31T16:03:43;98914.81;;;12.28;87.67
13612;BME280;6877;51.436;6.774;2023-03-31T16:06:28;98917.38;;;12.30;89.27
13612;BME280;6877;51.436;6.774;2023-03-31T16:09:07;98916.53;;;12.29;85.61
13612;BME280;6877;51.436;6.774;2023-03-31T16:11:40;98913.81;;;12.31;86.56
13612;BME280;6877;51.436;6.774;2023-03-31T16:14:37;98916.69;;;12.26;85.18
13612;BME280;6877;51.436;6.774;2023-03-31T16:17:20;98931.22;;;12.16;86.19
13612;BME280;6877;51.436;6.774;2023-03-31T16:20:00;98913.84;;;11.98;nan
13612;BME280;6877;51.436;6.774;2023-03-31T16:22:36;98918.84;;;11.87;87.33
13612;BME280;6877;51.436;6.774;2023-03-31T16:25:12;98918.34;;;11.78;87.07
13612;BME280;6877;51.436;6.774;2023-03-31T16:27:47;98917.94;;;11.70;87.04
13612;BME280;6877;51.436;6.774;2023-03-31T16:30:40;98922.97;;;11.57;89.77
13612;BME280;6877;51.436;6.774;2023-03-31T16:33:14;98932.44;;;11.43;89.48
13612;BME280;6877;51.436;6.774;2023-03-31T16:35:44;98926.28;;;11.26;90.75
13612;BME280;6877;51.436;6.774;2023-03-31T16:38:11;98908.88;;;11.08;92.71
13612;BME280;6877;51.436;6.774;2023-03-31T16:40:48;98915.72;;;10.93;93.87
13612;BME280;6877;51.436;6.774;2023-03-31T16:43:19;98923.19;;;10.83;94.71
13612;BME280;6877;51.436;6.774;2023-03-31T16:45:53;98924.56;;;10.73;96.36
13612;BME280;6877;51.436;6.774;2023-03-31T16:48:22;98919.53;;;10.68;97.92
13612;BME280;6877;51.436;6.774;2023-03-31T16:50:51;98909.28;;;10.64;97.75